createdAt,value
2023-04-20T00:03:35.696Z,55.4
2023-04-20T00:18:45.496Z,55.8
2023-04-20T00:33:54.955Z,56
2023-04-20T00:49:05.512Z,56.3
2023-04-20T01:04:15.412Z,56.4
2023-04-20T01:19:25.133Z,56.5
2023-04-20T01:34:34.830Z,56.7
2023-04-20T01:49:44.268Z,57
2023-04-20T02:04:54.155Z,57.2
2023-04-20T02:20:05.593Z,57.9
2023-04-20T02:35:15.110Z,57.6
2023-04-20T02:50:24.536Z,57.7
2023-04-20T03:05:34.096Z,57.8
2023-04-20T03:20:43.702Z,58
2023-04-20T03:35:53.508Z,58.2
2023-04-20T03:51:03.812Z,58.3
2023-04-20T04:06:13.314Z,58.4
2023-04-20T04:21:23.147Z,58.4
2023-04-20T04:36:32.653Z,58.6
2023-04-20T04:51:43.298Z,58.8
2023-04-20T05:06:53.426Z,59
2023-04-20T05:22:02.681Z,59.1
2023-04-20T05:37:12.622Z,59.3
2023-04-20T05:52:22.551Z,59.3
2023-04-20T06:07:32.349Z,59.4
2023-04-20T06:22:42.279Z,59.3
2023-04-20T06:37:52.974Z,59.2
2023-04-20T06:53:06.887Z,59.1
2023-04-20T07:08:18.313Z,59.5
2023-04-20T07:23:28.855Z,59.5
2023-04-20T07:38:38.725Z,59.6
2023-04-20T07:53:48.309Z,59.5
2023-04-20T08:08:59.124Z,59.5
2023-04-20T08:24:08.985Z,59.3
2023-04-20T08:39:19.006Z,58.8
2023-04-20T08:54:28.762Z,59.6
2023-04-20T09:09:39.304Z,59.8
2023-04-20T09:24:49.857Z,59
2023-04-20T09:39:59.491Z,58.9
2023-04-20T09:55:09.030Z,58.8
2023-04-20T10:10:19.072Z,58.6
2023-04-20T10:25:29.624Z,59
2023-04-20T10:40:39.676Z,57.9
2023-04-20T10:55:50.222Z,57.4
2023-04-20T11:11:00.312Z,57.7
2023-04-20T11:26:14.550Z,57.8
2023-04-20T11:41:24.629Z,57.1
2023-04-20T11:56:35.238Z,57.1
2023-04-20T12:11:45.290Z,56.2
2023-04-20T12:26:55.104Z,56.8
2023-04-20T12:42:05.477Z,56.4
2023-04-20T12:57:16.123Z,55.4
2023-04-20T13:12:26.178Z,56
2023-04-20T13:27:36.076Z,56.4
2023-04-20T13:42:46.528Z,55.5
2023-04-20T13:57:56.063Z,56.2
2023-04-20T14:13:05.680Z,57
2023-04-20T14:28:14.994Z,57.5
2023-04-20T14:43:24.361Z,58.1
2023-04-20T14:58:33.916Z,58.5
2023-04-20T15:13:43.167Z,58.7
2023-04-20T15:28:53.176Z,59
2023-04-20T15:44:03.692Z,59.3
2023-04-20T15:59:12.972Z,59.7
2023-04-20T16:14:22.624Z,60.1
2023-04-20T16:29:31.900Z,60.5
2023-04-20T16:44:42.372Z,60.6
2023-04-20T16:59:52.186Z,60.8
2023-04-20T17:15:05.503Z,60.9
2023-04-20T17:30:15.108Z,61
2023-04-20T17:45:24.437Z,61
2023-04-20T18:00:34.044Z,61.2
2023-04-20T18:15:44.391Z,61.3
2023-04-20T18:30:53.741Z,61.3
2023-04-20T18:46:06.441Z,61.3
2023-04-20T19:01:16.744Z,61.5
2023-04-20T19:16:27.086Z,61.6
2023-04-20T19:31:37.255Z,61.7
2023-04-20T19:46:47.147Z,61.9
2023-04-20T20:01:57.650Z,62.1
2023-04-20T20:17:07.973Z,62.3
2023-04-20T20:32:17.714Z,62.4
2023-04-20T20:47:27.708Z,62.6
2023-04-20T21:02:39.182Z,62.7
2023-04-20T21:17:49.119Z,63
2023-04-20T21:32:58.841Z,63.1
2023-04-20T21:48:08.560Z,63.3
2023-04-20T22:03:18.965Z,63.6
2023-04-20T22:18:28.931Z,63.7
2023-04-20T22:33:38.774Z,64
2023-04-20T22:48:49.320Z,64.2
2023-04-20T23:04:00.440Z,64.3
2023-04-20T23:19:10.039Z,64.4
2023-04-20T23:34:20.876Z,64.6
2023-04-20T23:49:30.907Z,64.7
